Time;durP1;ratioP1;P1;durP2;ratioP2;P2;SDS_P1;SDS_P2;PMS_P1;PMS_P2;Temp;Humidity;BMP_temperature;BMP_pressure;BME280_temperature;BME280_humidity;BME280_pressure;Samples;Min_cycle;Max_cycle;Signal;HPM_P1;HPM_P2
2022/05/12 00:01:30;;;;;;;4.95;1.60;;;;;;;14.63;62.43;101297.69;6194314;23;20075;-83
2022/05/12 00:03:56;;;;;;;7.80;1.90;;;;;;;14.53;62.21;101302.13;6194870;23;19997;-83
2022/05/12 00:06:21;;;;;;;4.22;1.50;;;;;;;14.52;62.84;101311.09;6193929;23;20064;-83
2022/05/12 00:08:46;;;;;;;8.73;2.17;;;;;;;14.44;62.41;101315.28;6195259;23;20019;-83
2022/05/12 00:11:12;;;;;;;8.85;1.90;;;;;;;14.44;62.65;101317.97;6195530;23;20005;-83
2022/05/12 00:13:37;;;;;;;8.15;2.00;;;;;;;14.35;63.15;101313.41;6194226;23;20055;-83
2022/05/12 00:16:02;;;;;;;5.97;1.95;;;;;;;14.30;62.92;101322.78;6193686;23;20370;-83
2022/05/12 00:18:28;;;;;;;9.07;2.13;;;;;;;14.29;62.55;101313.94;6193916;23;20036;-83
2022/05/12 00:20:54;;;;;;;6.75;2.25;;;;;;;14.25;62.83;101320.50;6191683;23;20118;-83
2022/05/12 00:23:22;;;;;;;6.88;1.92;;;;;;;14.18;63.24;101330.84;6192054;23;20032;-83
2022/05/12 00:25:49;;;;;;;6.85;1.60;;;;;;;14.09;63.52;101322.78;6194005;23;20498;-83
2022/05/12 00:28:16;;;;;;;6.60;1.88;;;;;;;14.05;63.35;101333.75;6192542;23;20011;-83
2022/05/12 00:30:43;;;;;;;5.18;1.70;;;;;;;13.99;63.73;101328.03;6193760;23;20074;-83
2022/05/12 00:33:10;;;;;;;4.93;1.80;;;;;;;13.97;64.20;101333.53;6193140;23;20465;-83
2022/05/12 00:35:36;;;;;;;7.00;1.70;;;;;;;13.95;64.06;101331.94;6194299;23;20005;-83
2022/05/12 00:38:02;;;;;;;5.47;1.80;;;;;;;13.96;63.87;101347.00;6191426;23;20005;-83
2022/05/12 00:40:28;;;;;;;6.88;1.80;;;;;;;13.87;64.17;101349.47;6193087;23;20009;-83
2022/05/12 00:42:57;;;;;;;4.15;1.60;;;;;;;13.81;64.71;101357.13;6193220;23;20008;-83
2022/05/12 00:45:23;;;;;;;4.10;1.80;;;;;;;13.75;64.66;101350.44;6195532;23;20043;-83
2022/05/12 00:47:48;;;;;;;5.22;1.70;;;;;;;13.69;64.81;101349.16;6194557;23;20434;-83
2022/05/12 00:50:15;;;;;;;9.48;2.00;;;;;;;13.67;64.81;101350.22;6201584;23;20080;-83
2022/05/12 00:52:42;;;;;;;6.60;1.88;;;;;;;13.63;65.19;101356.81;6202565;23;20068;-83
2022/05/12 00:55:12;;;;;;;3.50;1.55;;;;;;;13.61;65.40;101356.94;6195518;23;20001;-83
2022/05/12 00:57:42;;;;;;;4.90;1.60;;;;;;;13.59;65.16;101364.22;6196692;23;20005;-83
2022/05/12 01:00:11;;;;;;;6.13;2.25;;;;;;;13.56;65.21;101358.28;6197114;23;20001;-83
2022/05/12 01:02:39;;;;;;;6.82;2.42;;;;;;;13.49;65.90;101364.13;6194320;23;20009;-83
2022/05/12 01:05:06;;;;;;;3.50;1.55;;;;;;;13.47;66.13;101370.53;6202994;23;20005;-82
2022/05/12 01:07:35;;;;;;;4.90;1.85;;;;;;;13.46;65.48;101374.19;6197603;23;20009;-83
2022/05/12 01:10:02;;;;;;;5.78;2.15;;;;;;;13.42;65.96;101368.25;6196199;23;20092;-83
2022/05/12 01:12:28;;;;;;;7.00;2.20;;;;;;;13.38;66.18;101380.13;6197009;23;20054;-83
2022/05/12 01:14:53;;;;;;;6.80;2.33;;;;;;;13.34;67.02;101381.34;6200164;23;20009;-83
2022/05/12 01:17:19;;;;;;;6.18;2.25;;;;;;;13.31;66.81;101382.41;6211246;23;20011;-83
2022/05/12 01:19:46;;;;;;;8.40;2.67;;;;;;;13.30;67.02;101383.38;6214472;23;20000;-83
2022/05/12 01:22:34;;;;;;;7.18;2.60;;;;;;;13.31;66.06;101386.91;6213042;23;20020;-83
2022/05/12 01:24:59;;;;;;;6.97;2.40;;;;;;;13.17;68.13;101389.81;6214500;23;19997;-83
2022/05/12 01:27:25;;;;;;;4.63;2.22;;;;;;;13.18;68.03;101394.19;6213410;23;20023;-83
2022/05/12 01:29:53;;;;;;;7.68;2.47;;;;;;;13.01;68.62;101393.69;6214038;23;19985;-83
2022/05/12 01:32:20;;;;;;;7.93;2.42;;;;;;;13.04;68.15;101395.25;6213617;23;19996;-83
2022/05/12 01:34:46;;;;;;;9.63;3.10;;;;;;;13.01;68.76;101401.69;6213897;23;20032;-83
2022/05/12 01:37:14;;;;;;;6.78;2.58;;;;;;;12.98;68.11;101401.91;6213343;23;19989;-83
2022/05/12 01:39:40;;;;;;;12.07;3.00;;;;;;;12.96;68.79;101411.88;6211408;23;20078;-83
2022/05/12 01:42:08;;;;;;;8.52;2.42;;;;;;;12.91;69.07;101411.38;6206016;23;20009;-83
2022/05/12 01:44:34;;;;;;;8.07;2.80;;;;;;;12.88;69.19;101419.59;6199040;23;20000;-83
2022/05/12 01:47:00;;;;;;;10.60;2.67;;;;;;;12.81;69.11;101421.06;6199955;23;20005;-83
2022/05/12 01:49:26;;;;;;;9.00;2.90;;;;;;;12.82;68.85;101418.25;6196689;23;20012;-83
2022/05/12 01:51:56;;;;;;;7.63;2.70;;;;;;;12.81;68.75;101421.88;6198481;23;20079;-83
2022/05/12 01:54:22;;;;;;;7.93;2.42;;;;;;;12.80;69.17;101424.66;6197584;23;20017;-83
2022/05/12 01:56:48;;;;;;;9.60;2.78;;;;;;;12.75;69.63;101428.53;6197248;23;20478;-83
2022/05/12 01:59:13;;;;;;;10.20;2.80;;;;;;;12.72;68.91;101426.13;6199325;23;20001;-83
2022/05/12 02:01:39;;;;;;;8.00;2.50;;;;;;;12.73;69.38;101435.78;6198085;23;20005;-83
2022/05/12 02:04:05;;;;;;;10.13;2.80;;;;;;;12.69;69.29;101436.13;6199864;23;20008;-82
2022/05/12 02:06:31;;;;;;;8.23;2.40;;;;;;;12.64;69.72;101436.50;6200279;23;20013;-82
2022/05/12 02:08:57;;;;;;;12.98;2.78;;;;;;;12.59;69.47;101436.84;6201820;23;20012;-83
2022/05/12 02:11:23;;;;;;;6.85;2.47;;;;;;;12.65;69.13;101448.84;6198826;23;20009;-83
2022/05/12 02:13:48;;;;;;;7.72;2.67;;;;;;;12.62;69.59;101446.41;6197388;23;20477;-83
2022/05/12 02:16:13;;;;;;;6.30;2.67;;;;;;;12.58;69.41;101450.28;6200424;23;20339;-83
2022/05/12 02:18:39;;;;;;;10.27;2.83;;;;;;;12.55;69.43;101451.34;6200467;23;19997;-83
2022/05/12 02:21:04;;;;;;;9.55;2.60;;;;;;;12.51;69.66;101457.06;6200368;23;20312;-83
2022/05/12 02:23:30;;;;;;;9.02;2.58;;;;;;;12.48;69.57;101460.78;6201456;23;20009;-83
2022/05/12 02:25:55;;;;;;;10.23;2.63;;;;;;;12.41;69.21;101462.22;6201443;23;20477;-83
2022/05/12 02:28:20;;;;;;;10.70;2.43;;;;;;;12.38;69.56;101463.28;6201234;23;20001;-83
2022/05/12 02:30:45;;;;;;;8.07;3.30;;;;;;;12.31;70.06;101462.06;6200559;23;20236;-83
2022/05/12 02:33:11;;;;;;;6.70;2.67;;;;;;;12.31;70.25;101469.19;6203890;23;20291;-83
2022/05/12 02:35:38;;;;;;;9.95;2.92;;;;;;;12.31;69.81;101475.38;6205462;23;20009;-83
2022/05/12 02:38:04;;;;;;;9.43;2.78;;;;;;;12.21;70.04;101477.00;6205250;23;20066;-83
2022/05/12 02:40:31;;;;;;;9.15;3.33;;;;;;;12.16;70.43;101473.84;6206037;23;20016;-83
2022/05/12 02:42:57;;;;;;;7.85;2.55;;;;;;;12.15;70.65;101480.97;6206880;23;20043;-84
2022/05/12 02:45:22;;;;;;;10.95;2.90;;;;;;;12.11;70.78;101476.84;6203888;23;20005;-83
2022/05/12 02:47:47;;;;;;;8.98;2.67;;;;;;;12.05;70.61;101482.59;6205294;23;20008;-83
2022/05/12 02:50:14;;;;;;;8.40;2.63;;;;;;;12.01;70.93;101486.47;6203537;23;20009;-83
2022/05/12 02:52:40;;;;;;;7.60;3.25;;;;;;;11.97;70.67;101482.31;6200011;23;20013;-81
2022/05/12 02:55:06;;;;;;;10.15;2.92;;;;;;;11.96;70.76;101488.59;6203117;23;20012;-82
2022/05/12 02:57:32;;;;;;;7.95;2.72;;;;;;;11.92;70.89;101487.94;6201426;23;20005;-82
2022/05/12 02:59:57;;;;;;;9.15;3.40;;;;;;;11.85;70.99;101494.66;6202241;23;20056;-82
2022/05/12 03:02:22;;;;;;;10.10;2.92;;;;;;;11.83;71.14;101493.91;6203387;23;20009;-82
2022/05/12 03:04:47;;;;;;;9.30;3.40;;;;;;;11.84;71.11;101488.50;6200390;23;20024;-83
2022/05/12 03:07:13;;;;;;;9.98;3.50;;;;;;;11.82;71.51;101494.88;6202962;23;20012;-82
2022/05/12 03:09:38;;;;;;;9.00;3.33;;;;;;;11.79;71.46;101500.41;6197808;23;20005;-82
2022/05/12 03:12:07;;;;;;;8.40;3.42;;;;;;;11.75;71.63;101501.59;6202065;23;20001;-82
2022/05/12 03:14:32;;;;;;;11.40;4.07;;;;;;;11.74;71.65;101498.09;6205952;23;20382;-82
2022/05/12 03:16:57;;;;;;;10.27;3.90;;;;;;;11.66;72.09;101508.44;6203189;23;20009;-82
2022/05/12 03:19:23;;;;;;;11.30;3.78;;;;;;;11.65;72.57;101507.56;6204852;23;20224;-82
2022/05/12 03:21:49;;;;;;;14.40;3.72;;;;;;;11.63;72.12;101503.31;6203806;23;20031;-82
2022/05/12 03:24:15;;;;;;;9.57;3.88;;;;;;;11.59;72.51;101505.34;6201848;23;20001;-82
2022/05/12 03:26:41;;;;;;;10.18;4.43;;;;;;;11.58;72.41;101505.47;6201068;23;20012;-82
2022/05/12 03:29:06;;;;;;;9.45;4.28;;;;;;;11.54;72.63;101511.94;6199969;23;19997;-82
2022/05/12 03:31:31;;;;;;;9.57;4.18;;;;;;;11.48;72.91;101514.06;6201718;23;20009;-81
2022/05/12 03:33:57;;;;;;;12.05;4.80;;;;;;;11.43;72.91;101513.53;6198209;23;20016;-82
2022/05/12 03:36:22;;;;;;;17.02;4.45;;;;;;;11.40;72.44;101518.22;6198060;23;20336;-83
2022/05/12 03:38:48;;;;;;;14.18;5.43;;;;;;;11.41;73.37;101533.25;6197367;23;19997;-83
2022/05/12 03:41:13;;;;;;;13.68;5.05;;;;;;;11.35;73.30;101534.50;6201031;23;20057;-83
2022/05/12 03:46:26;;;;;;;16.15;5.40;;;;;;;11.27;74.26;101535.03;6200401;23;20016;-83
2022/05/12 03:48:51;;;;;;;18.27;6.55;;;;;;;11.29;74.64;101534.91;6199837;23;20136;-83
2022/05/12 03:51:17;;;;;;;13.85;5.72;;;;;;;11.25;75.10;101530.78;6202406;23;20005;-83
2022/05/12 03:53:42;;;;;;;13.00;5.80;;;;;;;11.22;74.97;101539.78;6201126;23;20001;-83
2022/05/12 03:56:08;;;;;;;15.55;6.80;;;;;;;11.22;75.44;101544.28;6200155;23;20008;-83
2022/05/12 03:58:34;;;;;;;14.07;6.90;;;;;;;11.15;75.64;101545.66;6198904;23;20427;-83
2022/05/12 04:01:01;;;;;;;19.00;7.40;;;;;;;11.14;75.83;101551.91;6195033;23;20009;-82
2022/05/12 04:03:26;;;;;;;16.58;6.75;;;;;;;11.11;75.06;101545.84;6193239;23;20000;-81
2022/05/12 04:05:54;;;;;;;16.13;7.18;;;;;;;11.10;75.78;101554.78;6193640;23;20327;-82
2022/05/12 04:08:20;;;;;;;22.77;7.07;;;;;;;11.07;76.03;101554.13;6195452;23;20131;-83
2022/05/12 04:10:45;;;;;;;19.17;8.05;;;;;;;11.05;77.06;101562.22;6196017;23;20016;-82
2022/05/12 04:13:10;;;;;;;20.30;8.10;;;;;;;11.03;77.02;101565.94;6194530;23;20037;-82
2022/05/12 04:15:36;;;;;;;20.70;8.45;;;;;;;11.04;76.61;101578.25;6192911;23;20009;-82
2022/05/12 04:18:04;;;;;;;18.30;8.07;;;;;;;11.03;77.15;101574.75;6193116;23;20001;-82
2022/05/12 04:20:32;;;;;;;18.55;8.68;;;;;;;11.05;77.73;101574.66;6194927;23;20237;-82
2022/05/12 04:22:58;;;;;;;19.35;8.68;;;;;;;11.04;76.81;101579.13;6191257;23;20005;-82
2022/05/12 04:25:25;;;;;;;21.75;9.38;;;;;;;11.02;77.44;101578.38;6193929;23;20036;-82
2022/05/12 04:27:50;;;;;;;22.30;9.57;;;;;;;11.00;77.39;101582.94;6196510;23;20020;-82
2022/05/12 04:30:17;;;;;;;22.48;10.05;;;;;;;11.01;78.03;101586.47;6203056;23;20009;-82
2022/05/12 04:32:43;;;;;;;25.52;10.02;;;;;;;11.03;77.59;101595.19;6197946;23;20407;-81
2022/05/12 04:35:15;;;;;;;21.08;9.77;;;;;;;11.03;78.74;101587.22;6193107;23;20024;-81
2022/05/12 04:37:54;;;;;;;27.88;10.73;;;;;;;11.08;78.39;101599.22;6194509;23;20009;-82
2022/05/12 04:40:29;;;;;;;18.73;9.63;;;;;;;11.05;78.21;101598.59;6190613;23;20016;-82
2022/05/12 04:42:57;;;;;;;22.67;10.38;;;;;;;11.08;79.19;101598.38;6192885;23;20005;-83
2022/05/12 04:45:26;;;;;;;23.33;10.80;;;;;;;11.10;79.34;101607.09;6193360;23;20084;-82
2022/05/12 04:47:52;;;;;;;25.85;11.73;;;;;;;11.13;79.55;101601.59;6193548;23;20375;-82
2022/05/12 04:50:21;;;;;;;22.15;11.38;;;;;;;11.13;79.36;101601.59;6193889;23;20005;-83
2022/05/12 04:52:47;;;;;;;23.05;11.27;;;;;;;11.19;79.82;101609.16;6194270;23;20009;-83
2022/05/12 04:55:13;;;;;;;19.13;11.20;;;;;;;11.24;80.13;101608.84;6195418;23;20051;-83
2022/05/12 04:57:43;;;;;;;24.25;12.25;;;;;;;11.26;80.07;101613.09;6193313;23;20059;-83
2022/05/12 05:00:14;;;;;;;21.33;11.40;;;;;;;11.30;80.56;101608.44;6196816;23;20422;-83
2022/05/12 05:02:40;;;;;;;24.48;12.07;;;;;;;11.34;80.92;101617.03;6194982;23;20009;-82
2022/05/12 05:05:07;;;;;;;24.83;12.88;;;;;;;11.40;80.95;101624.63;6197234;23;20001;-82
2022/05/12 05:07:33;;;;;;;25.20;12.63;;;;;;;11.43;81.02;101621.75;6171780;23;20066;-83
2022/05/12 05:09:58;;;;;;;25.90;13.65;;;;;;;11.48;81.15;101627.63;6194870;23;20001;-82
2022/05/12 05:12:23;;;;;;;26.60;14.07;;;;;;;11.54;81.06;101635.19;6195192;23;20005;-82
2022/05/12 05:14:49;;;;;;;23.92;12.60;;;;;;;11.61;81.09;101640.94;6193706;23;20009;-82
2022/05/12 05:17:14;;;;;;;25.80;14.43;;;;;;;11.69;81.48;101646.59;6196842;23;20032;-82
2022/05/12 05:19:41;;;;;;;28.33;13.93;;;;;;;11.78;81.45;101637.97;6195296;23;20009;-83
2022/05/12 05:22:06;;;;;;;28.52;14.45;;;;;;;11.92;81.28;101641.50;6192967;23;20005;-83
2022/05/12 05:24:32;;;;;;;27.83;14.88;;;;;;;12.05;81.16;101646.84;6170342;23;20391;-83
2022/05/12 05:26:57;;;;;;;29.33;15.90;;;;;;;12.16;81.24;101650.44;6195716;23;20020;-83
2022/05/12 05:29:23;;;;;;;26.58;15.18;;;;;;;12.32;81.16;101647.56;6202707;23;20001;-83
2022/05/12 05:31:49;;;;;;;27.23;15.52;;;;;;;12.48;80.81;101655.28;6201814;23;20008;-83
2022/05/12 05:34:15;;;;;;;32.25;15.63;;;;;;;12.67;80.45;101653.97;6205506;23;20069;-82
2022/05/12 05:36:42;;;;;;;31.83;16.17;;;;;;;12.77;80.10;101655.88;6201132;23;20012;-82
2022/05/12 05:39:08;;;;;;;25.77;14.88;;;;;;;12.93;79.87;101666.25;6196995;23;20422;-82
2022/05/12 05:41:35;;;;;;;26.27;15.73;;;;;;;13.10;78.94;101672.97;6196239;23;20135;-83
2022/05/12 05:44:01;;;;;;;28.85;15.10;;;;;;;13.28;78.66;101673.44;6206106;23;20020;-83
2022/05/12 05:46:26;;;;;;;23.90;15.25;;;;;;;13.42;77.75;101672.44;6207664;23;20013;-83
2022/05/12 05:48:52;;;;;;;26.98;15.82;;;;;;;13.53;78.08;101692.13;6202270;23;20311;-83
2022/05/12 05:54:01;;;;;;;26.55;15.10;;;;;;;13.77;77.00;101694.75;6196716;23;20092;-84
2022/05/12 05:56:29;;;;;;;26.45;16.23;;;;;;;13.93;76.56;101700.59;6190954;23;20005;-83
2022/05/12 05:58:55;;;;;;;31.20;17.05;;;;;;;14.05;76.28;101704.16;6195430;23;20015;-84
2022/05/12 06:01:21;;;;;;;26.27;16.20;;;;;;;14.14;76.05;101710.59;6196769;23;20009;-85
2022/05/12 06:03:46;;;;;;;27.27;16.77;;;;;;;14.23;75.38;101708.03;6193644;23;20311;-82
2022/05/12 06:06:12;;;;;;;30.38;16.85;;;;;;;14.32;75.11;101714.53;6191598;23;20032;-83
2022/05/12 06:08:37;;;;;;;28.90;17.35;;;;;;;14.35;75.33;101716.06;6204668;23;20016;-81
2022/05/12 06:11:04;;;;;;;28.02;16.63;;;;;;;14.43;75.12;101719.84;6213508;23;20028;-82
2022/05/12 06:13:31;;;;;;;29.02;17.20;;;;;;;14.50;75.08;101722.03;6213065;23;20033;-81
2022/05/12 06:15:56;;;;;;;27.08;16.92;;;;;;;14.52;75.10;101725.44;6213421;23;19997;-81
2022/05/12 06:18:21;;;;;;;28.52;16.13;;;;;;;14.53;74.67;101716.44;6213391;23;20041;-81
2022/05/12 06:20:50;;;;;;;29.20;16.90;;;;;;;14.59;74.70;101724.03;6212554;23;20087;-81
2022/05/12 06:23:16;;;;;;;21.90;16.48;;;;;;;14.78;74.68;101736.75;6210588;23;20092;-82
2022/05/12 06:25:42;;;;;;;31.30;17.13;;;;;;;14.84;74.05;101736.28;6211671;23;19993;-81
2022/05/12 06:28:07;;;;;;;26.15;17.60;;;;;;;14.86;73.74;101739.66;6213082;23;20073;-80
2022/05/12 06:30:33;;;;;;;22.63;16.70;;;;;;;14.92;73.34;101741.00;6213728;23;19993;-80
2022/05/12 06:33:00;;;;;;;30.48;17.58;;;;;;;14.89;72.34;101738.56;6212832;23;20004;-80
2022/05/12 06:35:26;;;;;;;30.58;17.63;;;;;;;15.03;72.53;101745.47;6206396;23;20056;-80
2022/05/12 06:37:52;;;;;;;27.13;16.95;;;;;;;15.02;72.02;101743.78;6210370;23;20004;-80
2022/05/12 06:40:18;;;;;;;24.08;16.90;;;;;;;15.12;72.04;101745.59;6212049;23;20009;-80
2022/05/12 06:42:46;;;;;;;26.30;17.63;;;;;;;15.06;71.31;101748.75;6211809;23;20004;-81
2022/05/12 06:45:14;;;;;;;26.55;16.67;;;;;;;15.14;71.42;101754.34;6212676;23;20003;-81
2022/05/12 06:47:46;;;;;;;25.40;16.85;;;;;;;15.21;71.40;101762.72;6205617;23;20096;-81
2022/05/12 06:50:11;;;;;;;23.63;16.15;;;;;;;15.27;70.65;101758.66;6206420;23;19997;-78
2022/05/12 06:52:37;;;;;;;26.00;16.15;;;;;;;15.54;69.64;101761.75;6212567;23;19989;-81
2022/05/12 06:55:02;;;;;;;24.08;16.48;;;;;;;15.75;69.00;101768.13;6211892;23;20040;-81
2022/05/12 06:57:28;;;;;;;28.92;15.45;;;;;;;15.93;67.84;101771.13;6204094;23;20013;-80
2022/05/12 06:59:55;;;;;;;24.58;15.85;;;;;;;16.02;67.18;101767.63;6189852;23;20016;-80
2022/05/12 07:02:22;;;;;;;26.65;15.27;;;;;;;16.28;65.85;101768.09;6196833;23;20005;-80
2022/05/12 07:04:48;;;;;;;20.50;13.70;;;;;;;16.42;64.64;101773.13;6195048;23;20065;-81
2022/05/12 07:07:14;;;;;;;23.70;13.40;;;;;;;16.41;63.88;101779.47;6193530;23;20013;-80
2022/05/12 07:09:39;;;;;;;20.20;13.85;;;;;;;16.52;63.60;101777.66;6198419;23;20398;-79
2022/05/12 07:12:05;;;;;;;21.30;13.98;;;;;;;16.80;63.26;101776.97;6204371;23;20031;-80
2022/05/12 07:14:31;;;;;;;20.73;13.95;;;;;;;17.10;63.27;101777.06;6189914;23;20009;-80
2022/05/12 07:16:57;;;;;;;20.85;13.93;;;;;;;17.33;60.85;101772.31;6195872;23;20040;-81
2022/05/12 07:19:23;;;;;;;20.48;13.00;;;;;;;17.30;59.80;101768.09;6212150;23;19996;-81
2022/05/12 07:27:18;;;;;;;16.67;11.68;;;;;;;17.15;59.42;101797.16;6213049;23;20055;-80
2022/05/12 07:29:43;;;;;;;20.20;13.00;;;;;;;17.27;59.70;101789.84;6213545;23;19997;-79
2022/05/12 07:32:09;;;;;;;21.27;12.82;;;;;;;17.52;59.27;101790.28;6213539;23;19997;-81
2022/05/12 07:34:36;;;;;;;19.05;12.70;;;;;;;17.76;58.50;101788.03;6213423;23;19993;-80
2022/05/12 07:37:03;;;;;;;20.23;12.25;;;;;;;17.97;57.39;101792.47;6212734;23;20054;-81
2022/05/12 07:39:30;;;;;;;17.92;9.80;;;;;;;18.20;55.33;101797.50;6213465;23;19993;-80
2022/05/12 07:41:57;;;;;;;14.13;8.90;;;;;;;18.52;54.51;101799.84;6213597;23;20032;-81
2022/05/12 07:44:31;;;;;;;14.68;9.30;;;;;;;18.85;53.13;101798.47;6213336;23;20020;-80
2022/05/12 07:46:57;;;;;;;20.23;10.27;;;;;;;19.16;53.45;101794.63;6211003;23;20017;-81
2022/05/12 07:49:22;;;;;;;15.35;10.23;;;;;;;19.69;52.52;101799.22;6213168;23;20013;-81
2022/05/12 07:51:48;;;;;;;18.30;9.87;;;;;;;20.01;51.62;101795.13;6213566;23;20008;-81
2022/05/12 07:54:14;;;;;;;16.90;9.00;;;;;;;20.23;49.44;101807.25;6212914;23;20259;-81
2022/05/12 07:56:39;;;;;;;16.93;9.10;;;;;;;20.51;48.76;101797.16;6213398;23;20009;-81
2022/05/12 07:59:05;;;;;;;14.27;9.02;;;;;;;20.75;47.22;101795.66;6213198;23;20232;-81
2022/05/12 08:01:30;;;;;;;18.05;9.00;;;;;;;21.18;48.03;101788.41;6213470;23;20002;-81
2022/05/12 08:03:56;;;;;;;15.25;7.70;;;;;;;21.43;46.16;101804.66;6213243;23;20016;-82
2022/05/12 08:06:21;;;;;;;12.00;7.60;;;;;;;21.53;44.54;101802.69;6213113;23;20003;-82
2022/05/12 08:08:51;;;;;;;16.80;9.13;;;;;;;21.42;42.98;101805.69;6213538;23;20236;-82
2022/05/12 08:11:19;;;;;;;14.05;8.13;;;;;;;21.69;43.35;101811.84;6215105;23;19993;-82
2022/05/12 08:13:46;;;;;;;12.10;8.02;;;;;;;22.04;43.24;101804.41;6213591;23;19993;-82
2022/05/12 08:16:12;;;;;;;15.05;7.65;;;;;;;22.14;42.44;101805.91;6210651;23;20005;-82
2022/05/12 08:18:42;;;;;;;16.23;8.25;;;;;;;22.23;41.84;101809.44;6210181;23;20008;-82
2022/05/12 08:21:08;;;;;;;15.25;8.52;;;;;;;22.44;41.58;101816.22;6207494;23;19993;-81
2022/05/12 08:23:43;;;;;;;14.53;8.10;;;;;;;22.42;41.18;101818.25;6214720;23;19993;-81
2022/05/12 08:26:09;;;;;;;11.32;5.88;;;;;;;22.28;39.92;101817.94;6214983;23;20221;-81
2022/05/12 08:28:35;;;;;;;11.20;5.57;;;;;;;22.09;39.82;101820.97;6214222;23;20004;-82
2022/05/12 08:31:00;;;;;;;10.75;5.13;;;;;;;22.33;39.94;101820.97;6214546;23;20005;-81
2022/05/12 08:33:26;;;;;;;9.50;5.25;;;;;;;22.71;39.23;101813.09;6212972;23;19997;-81
2022/05/12 08:35:52;;;;;;;8.52;4.53;;;;;;;22.98;37.59;101801.97;6209194;23;20016;-83
2022/05/12 08:38:19;;;;;;;11.65;5.50;;;;;;;23.12;37.79;101804.00;6214363;23;19993;-82
2022/05/12 08:41:01;;;;;;;9.70;5.55;;;;;;;23.18;39.94;101807.84;6211898;23;19997;-81
2022/05/12 08:43:52;;;;;;;8.10;4.65;;;;;;;23.13;39.86;101810.25;6203247;23;19997;-80
2022/05/12 08:46:21;;;;;;;10.10;4.20;;;;;;;23.01;38.38;101813.31;6213468;23;20016;-80
2022/05/12 08:48:49;;;;;;;9.32;4.10;;;;;;;23.03;36.96;101818.56;6214506;23;20020;-81
2022/05/12 08:51:22;;;;;;;10.80;3.58;;;;;;;23.16;35.04;101805.31;6214167;23;20037;-81
2022/05/12 08:53:54;;;;;;;6.95;4.43;;;;;;;23.33;36.76;101806.09;6212685;23;20009;-81
2022/05/12 08:56:22;;;;;;;9.73;4.45;;;;;;;23.21;35.54;101807.50;6214446;23;20031;-81
2022/05/12 08:58:49;;;;;;;6.35;4.43;;;;;;;22.76;36.96;101822.56;6214246;23;20023;-82
2022/05/12 09:01:36;;;;;;;10.18;4.13;;;;;;;22.83;37.68;101831.69;6213956;23;19992;-82
2022/05/12 09:04:29;;;;;;;10.10;4.88;;;;;;;22.50;38.59;101827.22;6214359;23;19993;-80
2022/05/12 09:07:20;;;;;;;11.13;4.63;;;;;;;22.12;39.21;101836.88;6214501;23;19997;-80
2022/05/12 09:10:01;;;;;;;10.30;5.13;;;;;;;22.37;37.97;101832.31;6212283;23;20005;-80
2022/05/12 09:12:35;;;;;;;10.25;5.25;;;;;;;22.90;36.82;101819.97;6214599;23;19996;-79
2022/05/12 09:15:17;;;;;;;10.68;4.68;;;;;;;23.52;37.79;101820.22;6212864;23;19993;-80
2022/05/12 09:17:49;;;;;;;10.20;5.10;;;;;;;23.79;36.09;101822.38;6212193;23;20012;-83
2022/05/12 09:20:15;;;;;;;14.38;5.78;;;;;;;23.86;34.71;101821.69;6213509;23;19993;-82
2022/05/12 09:22:42;;;;;;;18.13;6.38;;;;;;;23.82;34.58;101826.63;6214488;23;19989;-82
2022/05/12 09:25:08;;;;;;;10.77;4.95;;;;;;;23.71;34.90;101830.56;6214425;23;20017;-80
2022/05/12 09:27:36;;;;;;;9.57;4.72;;;;;;;23.45;34.49;101826.34;6214407;23;20020;-82
2022/05/12 09:30:04;;;;;;;9.65;4.97;;;;;;;23.03;34.07;101832.97;6214637;23;20073;-81
2022/05/12 09:32:32;;;;;;;8.20;4.20;;;;;;;22.84;34.35;101830.66;6213681;23;20012;-81
2022/05/12 09:35:25;;;;;;;10.15;4.63;;;;;;;23.39;36.56;101828.91;6214383;23;19989;-81
2022/05/12 09:37:55;;;;;;;7.70;4.25;;;;;;;23.41;32.85;101825.00;6214501;23;20032;-81
2022/05/12 09:40:34;;;;;;;8.77;4.00;;;;;;;23.36;33.77;101827.41;6213743;23;20005;-81
2022/05/12 09:43:15;;;;;;;9.45;4.82;;;;;;;23.70;32.87;101822.59;6213277;23;20005;-81
2022/05/12 09:45:40;;;;;;;12.40;5.40;;;;;;;23.82;32.81;101813.91;6212621;23;20009;-81
2022/05/12 09:48:18;;;;;;;10.65;4.60;;;;;;;24.08;33.71;101814.53;6212276;23;20116;-81
2022/05/12 09:50:44;;;;;;;4.93;3.00;;;;;;;24.36;30.48;101806.63;6212484;23;20036;-82
2022/05/12 09:53:11;;;;;;;8.02;2.83;;;;;;;24.47;31.24;101814.31;6214026;23;19993;-81
2022/05/12 09:55:39;;;;;;;9.13;3.00;;;;;;;24.13;30.59;101815.69;6214448;23;20008;-81
2022/05/12 09:58:14;;;;;;;6.22;3.20;;;;;;;24.27;31.74;101813.19;6213385;23;19993;-81
2022/05/12 10:01:02;;;;;;;5.60;2.53;;;;;;;24.58;31.93;101813.06;6213572;23;20023;-81
2022/05/12 12:00:36;;;;;;;6.55;1.75;;;;;;;23.21;29.18;101783.94;6132109;23;20060;-81
2022/05/12 12:03:20;;;;;;;5.00;1.70;;;;;;;23.22;30.40;101788.34;6212528;23;20001;-81
2022/05/12 12:05:48;;;;;;;4.45;1.92;;;;;;;23.22;30.04;101782.09;6196658;23;20260;-82
2022/05/12 12:08:32;;;;;;;4.88;1.88;;;;;;;23.44;30.54;101781.25;6190331;23;20427;-81
2022/05/12 12:11:12;;;;;;;8.32;1.80;;;;;;;23.35;29.53;101784.19;6194070;23;20151;-82
2022/05/12 12:13:38;;;;;;;3.70;1.50;;;;;;;23.26;29.70;101788.84;6189122;23;20426;-82
2022/05/12 12:16:16;;;;;;;7.60;2.00;;;;;;;23.28;29.57;101784.06;6162399;23;20005;-83
2022/05/12 12:18:46;;;;;;;4.18;1.63;;;;;;;23.22;28.88;101779.38;6189333;23;20007;-83
2022/05/12 12:21:41;;;;;;;5.30;1.67;;;;;;;23.44;30.17;101770.41;6189261;23;20072;-83
2022/05/12 12:24:19;;;;;;;7.50;2.10;;;;;;;23.45;29.23;101772.13;6162092;23;20488;-83
2022/05/12 12:26:50;;;;;;;7.47;2.20;;;;;;;23.57;29.73;101783.38;6188991;23;20079;-83
2022/05/12 12:29:19;;;;;;;4.55;1.90;;;;;;;23.53;29.63;101787.50;6190423;23;20059;-83
2022/05/12 12:31:48;;;;;;;6.40;1.92;;;;;;;23.67;29.03;101771.47;6193640;23;20001;-84
2022/05/12 12:34:26;;;;;;;4.53;1.83;;;;;;;23.75;28.73;101782.25;6162664;23;20013;-84
2022/05/12 12:37:19;;;;;;;6.65;2.13;;;;;;;23.61;28.86;101773.84;6190152;23;20005;-88
2022/05/12 12:39:47;;;;;;;7.65;2.05;;;;;;;23.70;30.18;101771.94;6226527;23;20001;-83
2022/05/12 12:42:16;;;;;;;5.45;2.60;;;;;;;23.74;29.18;101767.81;6191849;23;20001;-82
2022/05/12 12:44:51;;;;;;;9.25;2.30;;;;;;;23.70;29.24;101762.94;6218362;23;20406;-85
2022/05/12 12:47:39;;;;;;;3.75;2.10;;;;;;;23.68;29.50;101767.69;6218881;23;20005;-80
2022/05/12 12:50:16;;;;;;;5.22;2.33;;;;;;;23.40;29.67;101766.38;6226417;23;20013;-83
2022/05/12 12:52:44;;;;;;;6.57;2.33;;;;;;;23.33;29.07;101770.84;6222575;23;20013;-82
2022/05/12 12:58:01;;;;;;;7.45;2.28;;;;;;;23.16;29.39;101761.94;6223071;23;20048;-82
2022/05/12 13:00:33;;;;;;;4.13;2.05;;;;;;;23.12;30.51;101755.22;6224127;23;20016;-82
2022/05/12 13:03:04;;;;;;;6.63;2.10;;;;;;;22.92;30.57;101746.66;6228163;23;20008;-82
2022/05/12 13:05:31;;;;;;;6.40;2.45;;;;;;;22.80;29.03;101743.50;6227327;23;20031;-81
2022/05/12 13:08:06;;;;;;;4.15;2.38;;;;;;;22.80;30.26;101740.78;6206980;23;20012;-80
2022/05/12 13:10:45;;;;;;;5.70;2.00;;;;;;;22.89;31.14;101742.44;6242036;23;19989;-81
2022/05/12 13:13:10;;;;;;;5.90;1.92;;;;;;;22.84;29.94;101741.28;6242374;23;20024;-80
2022/05/12 13:15:43;;;;;;;4.82;1.90;;;;;;;22.85;30.54;101740.28;6242629;23;20040;-80
2022/05/12 13:18:18;;;;;;;4.10;1.95;;;;;;;22.76;31.80;101739.44;6240432;23;19992;-80
2022/05/12 13:20:44;;;;;;;5.93;2.15;;;;;;;22.76;30.28;101736.72;6237122;23;20004;-81
2022/05/12 13:23:24;;;;;;;5.60;1.98;;;;;;;22.78;31.38;101733.84;6234046;23;20012;-81
2022/05/12 13:25:50;;;;;;;4.55;1.65;;;;;;;22.84;30.09;101730.44;6217022;23;20005;-80
2022/05/12 13:28:27;;;;;;;3.72;1.73;;;;;;;22.96;30.53;101734.44;6243657;23;20047;-80
2022/05/12 13:31:23;;;;;;;4.95;2.00;;;;;;;22.93;29.95;101737.50;6243998;23;19999;-81
2022/05/12 13:34:12;;;;;;;4.78;1.90;;;;;;;22.96;31.18;101734.44;6216894;23;19996;-81
2022/05/12 13:36:40;;;;;;;4.00;1.70;;;;;;;22.97;30.51;101727.16;6217998;23;19999;-81
